ビリニュス の空港の天気 - METARとTAF

ビリニュス国際空港 ( EYVI / VNO ) - リトアニア ビリニュス
飛行場実況気象(Metar)
観測時間10/24 05:20 EEST (10/24 02:20 UTC)
風向・風速北西 6m/s
視程10km以上
天気現象
全天を覆う雲 雲底高度 240m
気温3℃
湿度87%
気圧1023hPa
METAREYVI 240220Z 32011KT 9999 OVC008 03/01 Q1023 NOSIG
過去の天気等 Google飛行場航空写真 Wunderground天気予報

過去48時間のMETAR

飛行場予報(TAF)
発表時間: 10/24 02:01 EEST (10/23 23:01 UTC)
予報対象時間: 24日3時 EEST ~ 25日3時 EEST
風向・風速北西 6m/s
視程9000m
全天の8割程度の雲 雲底高度 150m
全天の8割程度の雲 雲底高度 610m
24日3時 EEST ~ 24日11時 EEST に一時的に
全天の8割程度の雲 雲底高度 60m
24日11時 EEST ~ 24日13時 EEST に徐々に
なし
24日18時 EEST ~ 24日19時 EEST に徐々に
風向・風速南西 5m/s
TAF EYVI 232301Z 2400/2424 31012KT 9000 BKN005 BKN020
TEMPO 2400/2408 BKN002
BECMG 2408/2410 NSC
BECMG 2415/2416 22010KT